• Join FlightAware (Why Join?)
  • Login
  • US Flag 
10:56AM EDT


 

Airport Tracker/Info


-or-


 

Live Flight TrackerFlight Track Log ✈ CKS248A ✈ 31-Oct-2013 ✈ EDDP / LEJ - KCVG

Flight Track Log - Related Links

Times and Time Zones

All times are in EDT time to prevent confusion due to time zone crossing. See the CKS248A flight status page for this flight to view local times or setup timezone preferences in your user account.

Time Position Orientation Groundspeed Altitude Reporting Facility
EDT Latitude Longitude Course Direction KTS MPH feet Rate Location/Type
05:04PM 57.5298 -18.1044 253° West  Level Estimated
05:05PM 57.5722 -18.3182 290° West  Level FlightAware Approximate
05:06PM 57.6142 -18.5326 290° West  Level FlightAware Approximate
05:07PM 57.6559 -18.7474 290° West  Level FlightAware Approximate
05:08PM 57.6675 -18.9739 276° West  Level Estimated
05:09PM 57.6788 -19.2005 275° West  Level Estimated
05:10PM 57.6896 -19.4272 275° West  Level Estimated
05:11PM 57.7000 -19.6541 275° West  Level Estimated
05:12PM 57.7100 -19.8811 275° West  Level Estimated
05:13PM 57.7197 -20.1082 275° West  Level Estimated
05:14PM 57.7289 -20.3354 274° West  Level Estimated
05:15PM 57.7377 -20.5627 274° West  Level Estimated
05:16PM 57.7461 -20.7902 274° West  Level Estimated
05:17PM 57.7540 -21.0177 274° West  Level Estimated
05:18PM 57.7616 -21.2454 274° West  Level Estimated
05:19PM 57.7688 -21.4731 273° West  Level Estimated
05:20PM 57.7756 -21.7010 273° West  Level Estimated
05:21PM 57.7819 -21.9289 273° West  Level Estimated
05:22PM 57.7878 -22.1569 273° West  Level Estimated
05:23PM 57.7934 -22.3849 273° West  Level Estimated
05:24PM 57.7985 -22.6131 273° West  Level Estimated
05:25PM 57.8032 -22.8412 272° West  Level Estimated
05:26PM 57.8075 -23.0695 272° West  Level Estimated
05:27PM 57.8114 -23.2978 272° West  Level Estimated
05:27PM 60.0000 -20.0000 286° West 451 519 30,000  Level ETMS Enhanced Traffic Management System
05:28PM 57.8149 -23.5261 272° West  Level Estimated
05:29PM 57.8179 -23.7545 272° West  Level Estimated
05:30PM 57.8206 -23.9830 271° West  Level Estimated
05:31PM 57.8228 -24.2114 271° West  Level Estimated
05:32PM 57.8247 -24.4399 271° West  Level Estimated
05:33PM 60.2284 -21.7023 284° West 451 519 30,000  Level FlightAware Transoceanic
05:34PM 60.2592 -21.9474 284° West 451 519 30,000  Level FlightAware Transoceanic
05:35PM 60.2896 -22.1930 284° West 451 519 30,000  Level FlightAware Transoceanic
05:36PM 60.3195 -22.4390 284° West 451 519 30,000  Level FlightAware Transoceanic
05:37PM 60.3490 -22.6854 283° West 451 519 30,000  Level FlightAware Transoceanic
05:38PM 60.3780 -22.9323 283° West 451 519 30,000  Level FlightAware Transoceanic
05:39PM 60.4066 -23.1796 283° West 451 519 30,000  Level FlightAware Transoceanic
05:40PM 60.4346 -23.4274 283° West 451 519 30,000  Level FlightAware Transoceanic
05:41PM 60.4623 -23.6756 283° West 451 519 30,000  Level FlightAware Transoceanic
05:42PM 60.4894 -23.9242 282° West 451 519 30,000  Level FlightAware Transoceanic
05:43PM 60.5162 -24.1732 282° West 451 519 30,000  Level FlightAware Transoceanic
05:44PM 60.5424 -24.4226 282° West 451 519 30,000  Level FlightAware Transoceanic
05:45PM 60.5682 -24.6725 282° West 451 519 30,000  Level FlightAware Transoceanic
05:46PM 60.5935 -24.9227 282° West 451 519 30,000  Level FlightAware Transoceanic
05:47PM 60.6184 -25.1733 281° West 451 519 30,000  Level FlightAware Transoceanic
05:48PM 60.6427 -25.4243 281° West 451 519 30,000  Level FlightAware Transoceanic
05:49PM 60.6666 -25.6756 281° West 451 519 30,000  Level FlightAware Transoceanic
05:50PM 60.6901 -25.9274 281° West 451 519 30,000  Level FlightAware Transoceanic
05:51PM 60.7130 -26.1795 280° West 451 519 30,000  Level FlightAware Transoceanic
05:52PM 60.7355 -26.4319 280° West 451 519 30,000  Level FlightAware Transoceanic
05:53PM 60.7575 -26.6848 280° West 451 519 30,000  Level FlightAware Transoceanic
05:54PM 60.7791 -26.9379 280° West 451 519 30,000  Level FlightAware Transoceanic
05:55PM 60.8001 -27.1914 280° West 451 519 30,000  Level FlightAware Transoceanic
05:56PM 60.8207 -27.4452 279° West 451 519 30,000  Level FlightAware Transoceanic
05:57PM 60.8408 -27.6994 279° West 451 519 30,000  Level FlightAware Transoceanic
05:58PM 60.8604 -27.9538 279° West 451 519 30,000  Level FlightAware Transoceanic
05:59PM 60.8796 -28.2086 279° West 451 519 30,000  Level FlightAware Transoceanic
06:00PM 60.8982 -28.4636 278° West 451 519 30,000  Level FlightAware Transoceanic
06:01PM 60.9164 -28.7190 278° West 451 519 30,000  Level FlightAware Transoceanic
06:02PM 60.9341 -28.9747 278° West 451 519 30,000  Level FlightAware Transoceanic
06:03PM 60.9513 -29.2306 278° West 451 519 30,000  Level FlightAware Transoceanic
06:04PM 60.9680 -29.4868 278° West 451 519 30,000  Level FlightAware Transoceanic
06:05PM 60.9842 -29.7433 277° West 451 519 30,000  Level FlightAware Transoceanic
06:06PM 60.9995 -29.9922 277° West  Level FlightAware Approximate
06:07PM 61.0144 -30.2414 277° West  Level FlightAware Approximate
06:08PM 61.0085 -30.2347 274° West  Level FlightAware Approximate
06:09PM 61.0171 -30.4852 274° West  Level FlightAware Approximate
06:10PM 61.0253 -30.7358 274° West  Level FlightAware Approximate
06:11PM 61.0330 -30.9865 274° West  Level FlightAware Approximate
06:12PM 61.0402 -31.2374 274° West  Level FlightAware Approximate
06:13PM 61.0469 -31.4883 273° West  Level FlightAware Approximate
06:14PM 61.0532 -31.7394 273° West  Level FlightAware Approximate
06:15PM 61.0591 -31.9905 273° West  Level FlightAware Approximate
06:16PM 61.0644 -32.2418 273° West  Level FlightAware Approximate
06:17PM 61.0693 -32.4931 272° West  Level FlightAware Approximate
06:18PM 61.0737 -32.7445 272° West  Level FlightAware Approximate
06:19PM 61.0777 -32.9960 272° West  Level FlightAware Approximate
06:20PM 61.0812 -33.2475 272° West  Level FlightAware Approximate
06:21PM 61.0842 -33.4991 272° West  Level FlightAware Approximate
06:22PM 61.0868 -33.7507 271° West  Level FlightAware Approximate
06:23PM 61.0889 -34.0024 271° West  Level FlightAware Approximate
06:24PM 61.0905 -34.2541 271° West  Level FlightAware Approximate
06:25PM 61.0916 -34.5058 271° West  Level FlightAware Approximate
06:26PM 61.0923 -34.7575 270° West  Level FlightAware Approximate
06:27PM 61.0925 -35.0092 270° West  Level FlightAware Approximate
06:28PM 61.0923 -35.2610 270° West  Level FlightAware Approximate
06:29PM 61.0916 -35.5127 270° West  Level FlightAware Approximate
06:30PM 61.0904 -35.7644 270° West  Level FlightAware Approximate
06:31PM 61.0887 -36.0161 269° West  Level FlightAware Approximate
06:32PM 61.0866 -36.2677 269° West  Level FlightAware Approximate
06:33PM 61.0840 -36.5194 269° West  Level FlightAware Approximate
06:34PM 61.0810 -36.7710 269° West  Level FlightAware Approximate
06:35PM 61.0774 -37.0225 268° West  Level FlightAware Approximate
06:36PM 61.0734 -37.2739 268° West  Level FlightAware Approximate
06:37PM 61.0690 -37.5253 268° West  Level FlightAware Approximate
06:38PM 61.0640 -37.7766 268° West  Level FlightAware Approximate
06:39PM 61.0587 -38.0279 268° West  Level FlightAware Approximate
06:40PM 61.0528 -38.2790 267° West  Level FlightAware Approximate
06:41PM 61.0465 -38.5301 267° West  Level FlightAware Approximate
06:42PM 61.0397 -38.7810 267° West  Level FlightAware Approximate
06:43PM 61.0324 -39.0319 267° West  Level FlightAware Approximate
06:44PM 61.0247 -39.2826 266° West  Level FlightAware Approximate
06:45PM 61.0165 -39.5332 266° West  Level FlightAware Approximate
06:46PM 61.0079 -39.7836 266° West  Level FlightAware Approximate
06:47PM 60.9980 -40.0338 263° West  Level FlightAware Approximate
06:48PM 60.9826 -40.2827 263° West  Level FlightAware Approximate
06:49PM 60.9669 -40.5314 263° West  Level FlightAware Approximate
06:50PM 60.9506 -40.7798 262° West  Level FlightAware Approximate
06:51PM 60.9339 -41.0280 262° West  Level FlightAware Approximate
06:52PM 60.9168 -41.2759 262° West  Level FlightAware Approximate
06:53PM 60.8992 -41.5236 262° West  Level FlightAware Approximate
06:54PM 60.8811 -41.7709 262° West  Level FlightAware Approximate
06:55PM 60.8626 -42.0180 261° West  Level FlightAware Approximate
06:56PM 60.8436 -42.2648 261° West  Level FlightAware Approximate
06:57PM 60.8242 -42.5113 261° West  Level FlightAware Approximate
06:58PM 60.8043 -42.7575 261° West  Level FlightAware Approximate
06:59PM 60.7840 -43.0034 260° West  Level FlightAware Approximate
07:00PM 60.7632 -43.2489 260° West  Level FlightAware Approximate
07:01PM 60.7420 -43.4942 260° West  Level FlightAware Approximate
07:02PM 60.7203 -43.7391 260° West  Level FlightAware Approximate
07:03PM 60.6982 -43.9837 260° West  Level FlightAware Approximate
07:04PM 60.6757 -44.2280 259° West  Level FlightAware Approximate
07:05PM 60.6527 -44.4719 259° West  Level FlightAware Approximate
07:06PM 60.6292 -44.7154 259° West  Level FlightAware Approximate
07:07PM 60.6053 -44.9586 259° West  Level FlightAware Approximate
07:08PM 60.5810 -45.2014 259° West  Level FlightAware Approximate
07:09PM 60.5562 -45.4439 258° West  Level FlightAware Approximate
07:10PM 60.5310 -45.6860 258° West  Level FlightAware Approximate
07:11PM 60.5054 -45.9277 258° West  Level FlightAware Approximate
07:12PM 60.4793 -46.1690 258° West  Level FlightAware Approximate
07:13PM 60.4528 -46.4099 258° West  Level FlightAware Approximate
07:14PM 60.4259 -46.6505 257° West  Level FlightAware Approximate
07:15PM 60.3985 -46.8906 257° West  Level FlightAware Approximate
07:16PM 60.3707 -47.1303 257° West  Level FlightAware Approximate
07:17PM 60.3424 -47.3696 257° West  Level FlightAware Approximate
07:18PM 60.3138 -47.6085 256° West  Level FlightAware Approximate
07:19PM 60.2847 -47.8470 256° West  Level FlightAware Approximate
07:20PM 60.2551 -48.0851 256° West  Level FlightAware Approximate
07:21PM 60.2252 -48.3227 256° West  Level FlightAware Approximate
07:22PM 60.1948 -48.5599 256° West  Level FlightAware Approximate
07:23PM 60.1640 -48.7966 255° West  Level FlightAware Approximate
07:24PM 60.1328 -49.0329 255° West  Level FlightAware Approximate
07:25PM 60.1012 -49.2687 255° West  Level FlightAware Approximate
07:26PM 60.0691 -49.5041 255° West  Level FlightAware Approximate
07:27PM 60.0366 -49.7390 255° West  Level FlightAware Approximate
07:28PM 60.0037 -49.9735 254° West  Level FlightAware Approximate
07:29PM 59.9582 -50.1988 247° West  Level FlightAware Approximate
07:30PM 59.9106 -50.4224 247° West  Level FlightAware Approximate
07:31PM 59.8627 -50.6454 247° West  Level FlightAware Approximate
07:32PM 59.8144 -50.8677 247° West  Level FlightAware Approximate
07:33PM 59.7658 -51.0894 247° West  Level FlightAware Approximate
07:34PM 59.7167 -51.3104 246° West  Level FlightAware Approximate
07:35PM 59.6673 -51.5307 246° West  Level FlightAware Approximate
07:36PM 59.6176 -51.7505 246° West  Level FlightAware Approximate
07:37PM 59.5674 -51.9695 246° West  Level FlightAware Approximate
07:38PM 59.5169 -52.1879 246° West  Level FlightAware Approximate
07:39PM 59.4661 -52.4057 245° Southwest  Level FlightAware Approximate
07:40PM 59.4148 -52.6228 245° Southwest  Level FlightAware Approximate
07:41PM 59.3632 -52.8392 245° Southwest  Level FlightAware Approximate
07:42PM 59.3113 -53.0550 245° Southwest  Level FlightAware Approximate
07:43PM 59.2590 -53.2701 245° Southwest  Level FlightAware Approximate
07:44PM 59.2063 -53.4846 244° Southwest  Level FlightAware Approximate
07:45PM 59.1533 -53.6984 244° Southwest  Level FlightAware Approximate
07:46PM 59.1000 -53.9115 244° Southwest  Level FlightAware Approximate
07:47PM 59.0659 -54.1338 254° West  Level FlightAware Approximate
07:48PM 59.0315 -54.3556 253° West  Level FlightAware Approximate
07:48PM 58.8833 -56.0833 252° West 430 495 32,000  Level Gander Center
07:49PM 58.9967 -54.5770 253° West  Level FlightAware Approximate
07:49PM 58.8500 -56.2833 252° West 430 495 32,000  Level Gander Center
07:50PM 58.9616 -54.7980 253° West  Level FlightAware Approximate
07:50PM 58.7833 -56.5167 241° Southwest 430 495 32,000  Level Gander Center
07:51PM 58.9260 -55.0185 253° West  Level FlightAware Approximate
07:51PM 58.7333 -56.6833 240° Southwest 430 495 32,000  Level Gander Center
07:52PM 58.8901 -55.2385 253° West  Level FlightAware Approximate
07:52PM 58.6833 -56.8833 244° Southwest 430 495 32,000  Level Gander Center
07:53PM 58.8538 -55.4581 252° West  Level FlightAware Approximate
07:54PM 58.8172 -55.6772 252° West  Level FlightAware Approximate
07:54PM 58.5500 -57.2833 238° Southwest 440 506 32,000  Level Gander Center
07:55PM 58.4667 -57.4500 226° Southwest 440 506 32,000  Level Gander Center
07:56PM 58.4000 -57.6500 238° Southwest 440 506 32,000  Level Gander Center
07:57PM 58.3500 -57.8500 245° Southwest 440 506 32,000  Level Gander Center
07:58PM 58.2667 -58.0500 232° Southwest 440 506 32,000  Level Gander Center
07:59PM 58.2000 -58.2500 238° Southwest 430 495 32,000  Level Gander Center
08:00PM 58.1167 -58.4167 227° Southwest 430 495 32,000  Level Gander Center
08:02PM 58.0000 -58.8000 240° Southwest 430 495 32,000  Level Gander Center
08:03PM 57.9333 -58.9833 236° Southwest 420 483 32,000  Level Gander Center
08:05PM 57.8000 -59.2333 225° Southwest 430 495 32,000  Level Montreal Center
08:06PM 57.7333 -59.4333 238° Southwest 420 483 32,000  Level Montreal Center
08:07PM 57.6667 -59.6167 236° Southwest 420 483 32,000  Level Montreal Center
08:08PM 57.6167 -59.7833 241° Southwest 420 483 32,000  Level Montreal Center
08:09PM 57.5333 -59.9667 230° Southwest 420 483 32,000  Level Montreal Center
08:10PM 57.4667 -60.1333 233° Southwest 410 472 32,000  Level Montreal Center
08:11PM 57.4000 -60.3167 236° Southwest 410 472 32,000  Level Montreal Center
08:12PM 57.3333 -60.4667 231° Southwest 410 472 32,000  Level Montreal Center
08:13PM 57.2667 -60.6500 236° Southwest 410 472 32,000  Level Montreal Center
08:14PM 57.2000 -60.8167 234° Southwest 400 460 32,000  Level Montreal Center
08:15PM 57.1333 -60.9667 231° Southwest 400 460 32,000  Level Montreal Center
08:16PM 57.0667 -61.1500 236° Southwest 400 460 32,000  Level Montreal Center
08:17PM 57.0000 -61.3000 231° Southwest 400 460 32,000  Level Montreal Center
08:18PM 56.9333 -61.4500 231° Southwest 400 460 32,000  Level Montreal Center
08:19PM 56.8500 -61.6333 230° Southwest 400 460 32,000  Level Montreal Center
08:20PM 56.8000 -61.7833 239° Southwest 400 460 32,000  Level Montreal Center
08:21PM 56.7333 -61.9333 231° Southwest 400 460 32,000  Level Montreal Center
08:22PM 56.6667 -62.1167 237° Southwest 400 460 32,000  Level Montreal Center
08:23PM 56.5833 -62.2667 225° Southwest 400 460 32,000  Level Montreal Center
08:24PM 56.5167 -62.4167 231° Southwest 400 460 32,000  Level Montreal Center
08:25PM 56.4667 -62.5833 242° Southwest 370 426 32,000  Level Montreal Center
08:26PM 56.4000 -62.7333 231° Southwest 390 449 32,000  Level Montreal Center
08:27PM 56.3333 -62.8833 231° Southwest 400 460 32,000  Level Montreal Center
08:28PM 56.2667 -63.0667 237° Southwest 400 460 32,000  Level Montreal Center
08:29PM 56.1833 -63.2000 222° Southwest 390 449 32,000  Level Montreal Center
08:30PM 56.1167 -63.3500 231° Southwest 390 449 32,000  Level Montreal Center
08:31PM 56.0500 -63.5000 232° Southwest 400 460 32,000  Level Montreal Center
08:32PM 55.9833 -63.6667 234° Southwest 400 460 32,000  Level Montreal Center
08:33PM 55.9167 -63.8167 232° Southwest 400 460 32,000  Level Montreal Center
08:34PM 55.8333 -63.9667 225° Southwest 400 460 32,000  Level Montreal Center
08:35PM 55.7667 -64.1333 235° Southwest 400 460 32,000  Level Montreal Center
08:36PM 55.7000 -64.2667 228° Southwest 390 449 32,000  Level Montreal Center
08:37PM 55.6333 -64.4167 232° Southwest 390 449 32,000  Level Montreal Center
08:38PM 55.5667 -64.5833 235° Southwest 400 460 32,000  Level Montreal Center
08:39PM 55.4833 -64.7333 226° Southwest 390 449 32,000  Level Montreal Center
08:40PM 55.4167 -64.8667 229° Southwest 400 460 32,000  Level Montreal Center
08:41PM 55.3500 -65.0333 235° Southwest 400 460 32,000  Level Montreal Center
08:42PM 55.2667 -65.1833 226° Southwest 400 460 32,000  Level Montreal Center
08:43PM 55.1833 -65.3500 229° Southwest 400 460 32,000  Level Montreal Center
08:44PM 55.1333 -65.4833 237° Southwest 400 460 32,000  Level Montreal Center
08:45PM 55.0333 -65.6167 217° Southwest 410 472 32,000  Level Montreal Center
08:46PM 54.9667 -65.7833 235° Southwest 400 460 32,000  Level Montreal Center
08:47PM 54.9000 -65.9333 232° Southwest 400 460 32,000  Level Montreal Center
08:48PM 54.8167 -66.0667 223° Southwest 400 460 32,000  Level Montreal Center
08:49PM 54.7500 -66.2333 235° Southwest 420 483 32,000  Level Montreal Center
08:50PM 54.6833 -66.3667 229° Southwest 410 472 32,000  Level Montreal Center
08:51PM 54.6000 -66.5167 226° Southwest 380 437 32,000  Level Montreal Center
08:52PM 54.5333 -66.6667 233° Southwest 410 472 32,000  Level Montreal Center
08:53PM 54.4500 -66.8000 223° Southwest 410 472 32,000  Level Montreal Center
08:54PM 54.3667 -66.9500 226° Southwest 410 472 32,000  Level Montreal Center
08:55PM 54.3000 -67.1167 236° Southwest 410 472 32,000  Level Montreal Center
08:56PM 54.2167 -67.2500 223° Southwest 410 472 32,000  Level Montreal Center
08:57PM 54.1500 -67.4167 236° Southwest 410 472 32,000  Level Montreal Center
08:58PM 54.0667 -67.5500 223° Southwest 410 472 32,000  Level Montreal Center
08:59PM 54.0000 -67.6667 226° Southwest 410 472 32,000  Level Montreal Center
09:00PM 53.9167 -67.8333 230° Southwest 410 472 32,000  Level Montreal Center
09:01PM 53.8333 -67.9667 223° Southwest 410 472 32,000  Level Montreal Center
09:02PM 53.7500 -68.1167 227° Southwest 410 472 32,000  Level Montreal Center
09:03PM 53.6833 -68.2500 230° Southwest 420 483 32,000  Level Montreal Center
09:04PM 53.6000 -68.4000 227° Southwest 410 472 32,000  Level Montreal Center
09:05PM 53.5333 -68.5333 230° Southwest 420 483 32,000  Level Montreal Center
09:06PM 53.4333 -68.6833 222° Southwest 420 483 32,000  Level Montreal Center
09:07PM 53.3667 -68.8167 230° Southwest 420 483 32,000  Level Montreal Center
09:08PM 53.2833 -68.9667 227° Southwest 420 483 32,000  Level Montreal Center
09:09PM 53.2167 -69.1167 233° Southwest 420 483 32,000  Level Montreal Center
09:10PM 53.1333 -69.2500 224° Southwest 420 483 32,000  Level Montreal Center
09:11PM 53.0333 -69.4000 222° Southwest 420 483 32,000  Level Montreal Center
09:12PM 52.9667 -69.5500 234° Southwest 420 483 32,000  Level Montreal Center
09:13PM 52.8667 -69.6833 219° Southwest 420 483 32,000  Level Montreal Center
09:14PM 52.8000 -69.8333 234° Southwest 430 495 32,000  Level Montreal Center
09:15PM 52.7167 -69.9833 228° Southwest 430 495 32,000  Level Montreal Center
09:16PM 52.6167 -70.1000 215° Southwest 430 495 32,000  Level Montreal Center
09:17PM 52.5500 -70.2500 234° Southwest 430 495 32,000  Level Montreal Center
09:18PM 52.4667 -70.4000 228° Southwest 420 483 32,000  Level Montreal Center
09:19PM 52.3667 -70.5333 219° Southwest 420 483 32,000  Level Montreal Center
09:20PM 52.3000 -70.6833 234° Southwest 410 472 32,000  Level Montreal Center
09:21PM 52.2167 -70.8000 221° Southwest 410 472 32,000  Level Montreal Center
09:22PM 52.1333 -70.9167 221° Southwest 410 472 32,000  Level Montreal Center
09:23PM 52.0333 -71.0333 216° Southwest 400 460 32,000  Level Montreal Center
09:24PM 51.9667 -71.1500 227° Southwest 390 449 32,000  Level Montreal Center
09:25PM 51.8833 -71.2667 221° Southwest 400 460 32,000  Level Montreal Center
09:26PM 51.8000 -71.3833 221° Southwest 390 449 32,000  Level Montreal Center
09:27PM 51.7000 -71.5000 216° Southwest 400 460 32,000  Level Montreal Center
09:28PM 51.6333 -71.6167 227° Southwest 400 460 32,000  Level Montreal Center
09:29PM 51.5500 -71.7333 221° Southwest 400 460 32,000  Level Montreal Center
09:30PM 51.4500 -71.8500 216° Southwest 400 460 32,000  Level Montreal Center
09:31PM 51.3667 -71.9667 221° Southwest 400 460 32,000  Level Montreal Center
09:32PM 51.2833 -72.0833 221° Southwest 400 460 32,000  Level Montreal Center
09:33PM 51.2000 -72.2000 221° Southwest 400 460 32,000  Level Montreal Center
09:34PM 51.1333 -72.3167 228° Southwest 400 460 32,000  Level Montreal Center
09:35PM 51.0333 -72.4333 216° Southwest 400 460 32,000  Level Montreal Center
09:36PM 50.9500 -72.5500 221° Southwest 400 460 32,000  Level Montreal Center
09:37PM 50.8500 -72.6833 220° Southwest 410 472 32,000  Level Montreal Center
09:38PM 50.7667 -72.8000 222° Southwest 410 472 32,000  Level Montreal Center
09:39PM 50.6667 -72.9167 216° Southwest 410 472 32,000  Level Montreal Center
09:40PM 50.6000 -73.0167 224° Southwest 410 472 32,000  Level Montreal Center
09:41PM 50.5167 -73.1333 222° Southwest 410 472 32,000  Level Montreal Center
09:42PM 50.4167 -73.2500 217° Southwest 410 472 32,000  Level Montreal Center
09:43PM 50.3333 -73.3500 217° Southwest 410 472 32,000  Level Montreal Center
09:44PM 50.2500 -73.4667 222° Southwest 410 472 32,000  Level Montreal Center
09:45PM 50.1500 -73.5833 217° Southwest 410 472 32,000  Level Montreal Center
09:46PM 50.0667 -73.7167 226° Southwest 410 472 32,000  Level Montreal Center
09:47PM 49.9667 -73.8167 213° Southwest 410 472 32,000  Level Montreal Center
09:48PM 49.8833 -73.9333 222° Southwest 410 472 32,000  Level Montreal Center
09:49PM 49.8000 -74.0333 218° Southwest 410 472 32,000  Level Montreal Center
09:50PM 49.7000 -74.1500 217° Southwest 410 472 32,000  Level Montreal Center
09:51PM 49.6333 -74.2500 224° Southwest 410 472 32,000  Level Montreal Center
09:52PM 49.5500 -74.3667 222° Southwest 410 472 32,000  Level Montreal Center
09:53PM 49.4500 -74.4667 213° Southwest 410 472 32,000  Level Montreal Center
09:54PM 49.3667 -74.6000 226° Southwest 410 472 32,000  Level Montreal Center
09:55PM 49.2833 -74.7000 218° Southwest 410 472 32,000  Level Montreal Center
09:56PM 49.1833 -74.8167 217° Southwest 410 472 32,000  Level Montreal Center
09:57PM 49.1000 -74.9167 218° Southwest 410 472 32,000  Level Montreal Center
09:58PM 49.0000 -75.0167 213° Southwest 410 472 32,000  Level Montreal Center
09:59PM 48.9167 -75.1167 218° Southwest 410 472 32,000  Level Montreal Center
10:00PM 48.8167 -75.2500 221° Southwest 410 472 32,000  Level Montreal Center
10:01PM 48.7333 -75.3500 218° Southwest 410 472 32,000  Level Montreal Center
10:02PM 48.6333 -75.4500 213° Southwest 410 472 32,000  Level Montreal Center
10:03PM 48.5500 -75.5667 223° Southwest 410 472 32,000  Level Montreal Center
10:04PM 48.4500 -75.6667 214° Southwest 410 472 32,000  Level Montreal Center
10:05PM 48.3667 -75.7833 223° Southwest 410 472 32,000  Level Montreal Center
10:06PM 48.2833 -75.8833 219° Southwest 410 472 32,000  Level Montreal Center
10:07PM 48.1833 -76.0000 218° Southwest 410 472 32,000  Level Montreal Center
10:08PM 48.1000 -76.1000 219° Southwest 410 472 32,000  Level Montreal Center
10:09PM 47.9833 -76.2000 210° Southwest 410 472 32,000  Level Montreal Center
10:15PM 47.7870 -76.4470 210° Southwest 414 476 32,000  Level FlightAware ADS-B
10:17PM 47.5070 -76.7600 217° Southwest 410 472 32,000  Level FlightAware ADS-B
10:18PM 47.1750 -77.1250 217° Southwest 403 464 32,000  Level FlightAware
10:19PM 47.3490 -76.9350 36° Northeast 407 468 32,000  Level FlightAware ADS-B
10:19PM 47.3280 -76.9580 217° Southwest 408 470 32,000  Level FlightAware ADS-B
10:20PM 47.2600 -77.0320 216° Southwest 407 468 32,000  Level FlightAware ADS-B
10:20PM 47.2310 -77.0640 217° Southwest 406 467 32,000  Level FlightAware ADS-B
10:21PM 46.9350 -77.3860 217° Southwest 399 459 32,000  Level FlightAware
10:21PM 47.1770 -77.1240 36° Northeast 404 465 32,000  Level FlightAware ADS-B
10:22PM 47.0300 -77.2830 216° Southwest 401 461 32,000  Level FlightAware ADS-B
10:24PM 46.7070 -77.6300 216° Southwest 394 453 32,000  Level FlightAware
10:24PM 46.6620 -77.6790 217° Southwest 394 453 32,000  Level FlightAware
10:24PM 46.6270 -77.7160 216° Southwest 392 451 32,000  Level FlightAware
10:25PM 46.5700 -77.7760 216° Southwest 391 450 32,000  Level FlightAware
10:26PM 46.5160 -77.8330 216° Southwest 390 449 32,000  Level FlightAware
10:26PM 46.4670 -77.8850 216° Southwest 390 449 32,000  Level FlightAware
10:27PM 46.3890 -77.9680 216° Southwest 387 445 32,000  Level FlightAware
10:28PM 46.3430 -78.0160 216° Southwest 387 445 32,000  Level FlightAware
10:28PM 46.3020 -78.0590 216° Southwest 387 445 32,000  Level FlightAware
10:29PM 46.2300 -78.1340 216° Southwest 388 447 32,000  Level FlightAware
10:30PM 46.1540 -78.2140 216° Southwest 388 447 32,000  Level FlightAware
10:30PM 46.1230 -78.2460 216° Southwest 387 445 32,000  Level FlightAware
10:31PM 46.0430 -78.3280 215° Southwest 386 444 32,000  Level FlightAware
10:32PM 46.0030 -78.3700 216° Southwest 386 444 32,000  Level FlightAware
10:33PM 45.9150 -78.4610 216° Southwest 385 443 32,000  Level FlightAware
10:33PM 45.8720 -78.5050 215° Southwest 384 442 32,000  Level FlightAware
10:34PM 45.8250 -78.5530 215° Southwest 382 440 32,000  Level FlightAware
10:35PM 45.7510 -78.6290 216° Southwest 380 437 32,000  Level FlightAware
10:35PM 45.7010 -78.6810 216° Southwest 379 436 32,000  Level FlightAware
10:36PM 45.6270 -78.7560 215° Southwest 378 435 32,000  Level FlightAware
10:36PM 45.5930 -78.7900 215° Southwest 377 434 32,000  Level FlightAware
10:37PM 45.5400 -78.8430 215° Southwest 377 434 32,000  Level FlightAware
10:38PM 45.4700 -78.9150 216° Southwest 375 432 32,000  Level FlightAware
10:39PM 45.3960 -78.9880 215° Southwest 375 432 32,000  Level FlightAware
10:40PM 45.3150 -79.0700 215° Southwest 374 430 32,000  Level FlightAware
10:41PM 45.2370 -79.1480 215° Southwest 374 430 32,000  Level FlightAware
10:41PM 45.1930 -79.1920 215° Southwest 373 429 32,000  Level FlightAware
10:42PM 45.1520 -79.2330 215° Southwest 373 429 32,000  Level FlightAware
10:43PM 45.0720 -79.3130 215° Southwest 370 426 32,000  Level FlightAware
10:44PM 44.9880 -79.3960 215° Southwest 366 421 32,000  Level FlightAware
10:44PM 44.9340 -79.4490 215° Southwest 367 422 32,000  Level FlightAware
10:45PM 44.8610 -79.5200 215° Southwest 366 421 32,000  Level FlightAware
10:46PM 44.8070 -79.5740 215° Southwest 367 422 32,000  Level FlightAware
10:47PM 44.7440 -79.6360 215° Southwest 367 422 32,000  Level FlightAware
10:47PM 44.6720 -79.7050 214° Southwest 368 423 32,000  Level FlightAware
10:48PM 44.5930 -79.7820 215° Southwest 367 422 32,000  Level FlightAware
10:49PM 44.5210 -79.8490 214° Southwest 369 425 32,000  Level FlightAware
10:50PM 44.4520 -79.9100 212° Southwest 370 426 32,000  Level FlightAware
10:51PM 44.3810 -79.9740 213° Southwest 372 428 32,000  Level FlightAware
10:52PM 44.3000 -80.0470 213° Southwest 370 426 32,000  Level FlightAware
10:52PM 44.2460 -80.0960 213° Southwest 369 425 32,000  Level FlightAware
10:53PM 44.1600 -80.1720 212° Southwest 367 422 32,000  Level FlightAware
10:54PM 44.0730 -80.2500 213° Southwest 366 421 32,000  Level FlightAware
10:55PM 44.0050 -80.3100 212° Southwest 366 421 32,000  Level FlightAware
10:56PM 43.9240 -80.3810 212° Southwest 368 423 32,000  Level FlightAware
10:57PM 43.8790 -80.4210 213° Southwest 367 422 32,000  Level FlightAware
10:58PM 43.7910 -80.4980 212° Southwest 367 422 32,000  Level FlightAware
10:58PM 43.7220 -80.5590 213° Southwest 365 420 32,000  Level FlightAware
10:59PM 43.6440 -80.6270 212° Southwest 367 422 32,000  Level FlightAware
11:00PM 43.5660 -80.6950 212° Southwest 368 423 32,000 60 Level FlightAware
11:01PM 43.5220 -80.7330 212° Southwest 374 430 32,100  Climbing FlightAware
11:01PM 43.4810 -80.7680 212° Southwest 371 427 32,000 -120 Descending FlightAware
11:02PM 43.4250 -80.8170 212° Southwest 369 425 32,000  Level FlightAware
11:03PM 43.3510 -80.8810 212° Southwest 365 420 32,000  Level FlightAware
11:04PM 43.2670 -80.9530 212° Southwest 362 417 32,000  Level FlightAware
11:04PM 43.2020 -81.0080 212° Southwest 362 417 32,000  Level FlightAware
11:05PM 43.1280 -81.0720 212° Southwest 364 419 32,000  Level FlightAware
11:06PM 43.0910 -81.1040 212° Southwest 364 419 32,000  Level FlightAware
11:07PM 43.0060 -81.1700 210° Southwest 368 423 32,000  Level FlightAware
11:07PM 42.9590 -81.1990 204° Southwest 370 426 32,000  Level FlightAware
11:08PM 42.8870 -81.2420 204° Southwest 369 425 32,000  Level FlightAware
11:09PM 42.7930 -81.2990 204° Southwest 365 420 32,000  Level FlightAware
11:09PM 42.7510 -81.3260 205° Southwest 365 420 32,000  Level FlightAware
11:10PM 42.6790 -81.3700 204° Southwest 366 421 32,000  Level FlightAware
11:11PM 42.6000 -81.4190 205° Southwest 368 423 32,000  Level FlightAware
11:12PM 42.5410 -81.4550 204° Southwest 368 423 32,000  Level FlightAware
11:12PM 42.4710 -81.4970 204° Southwest 368 423 32,000  Level FlightAware
11:13PM 42.4210 -81.5270 204° Southwest 369 425 32,000  Level FlightAware
11:14PM 42.3440 -81.5740 204° Southwest 369 425 32,000  Level FlightAware
11:15PM 42.2630 -81.6230 204° Southwest 369 425 32,000  Level FlightAware
11:15PM 42.2140 -81.6530 204° Southwest 370 426 32,000  Level FlightAware
11:16PM 42.1210 -81.7090 204° Southwest 371 427 32,000  Level FlightAware
11:17PM 42.0590 -81.7460 204° Southwest 370 426 32,000  Level FlightAware
11:18PM 41.9650 -81.8030 204° Southwest 368 423 32,000  Level FlightAware
11:19PM 41.8760 -81.8560 204° Southwest 368 423 32,000  Level FlightAware
11:20PM 41.7850 -81.9110 204° Southwest 367 422 32,000  Level FlightAware
11:20PM 41.7350 -81.9430 206° Southwest 366 421 32,000  Level FlightAware
11:21PM 41.6480 -81.9990 206° Southwest 365 420 32,000  Level FlightAware
11:22PM 41.6140 -82.0200 205° Southwest 365 420 32,000  Level FlightAware
11:23PM 41.5350 -82.0700 205° Southwest 365 420 32,000  Level FlightAware
11:23PM 41.4520 -82.1210 205° Southwest 366 421 32,000  Level FlightAware
11:24PM 41.3850 -82.1640 206° Southwest 367 422 32,000  Level FlightAware
11:25PM 41.3070 -82.2130 205° Southwest 366 421 32,000 -540 Level FlightAware
11:26PM 41.2200 -82.2670 205° Southwest 363 418 31,100 -1,080 Descending FlightAware
11:27PM 41.1460 -82.3130 205° Southwest 363 418 30,200 -660 Descending FlightAware
11:28PM 41.0620 -82.3650 205° Southwest 360 414 30,000 -120 Descending FlightAware
11:29PM 40.9700 -82.4220 205° Southwest 360 414 30,000  Level FlightAware
11:30PM 40.8830 -82.4760 205° Southwest 361 415 30,000  Level FlightAware
11:31PM 40.7910 -82.5320 205° Southwest 363 418 30,000  Level FlightAware
11:32PM 40.7020 -82.5870 205° Southwest 362 417 30,000  Level FlightAware
11:33PM 40.6160 -82.6400 205° Southwest 361 415 30,000  Level FlightAware
11:33PM 40.5680 -82.6690 205° Southwest 360 414 30,000  Level FlightAware
11:34PM 40.5000 -82.7110 205° Southwest 361 415 30,000  Level FlightAware
11:35PM 40.4220 -82.7580 205° Southwest 362 417 30,000  Level FlightAware
11:36PM 40.3400 -82.8080 205° Southwest 363 418 30,000  Level FlightAware
11:36PM 40.2820 -82.8430 205° Southwest 365 420 30,000 -300 Level FlightAware
11:37PM 40.1820 -82.9030 205° Southwest 351 404 29,500 -900 Descending FlightAware
11:38PM 40.1230 -82.9380 204° Southwest 341 392 28,500 -1,980 Descending FlightAware
11:39PM 40.0430 -82.9870 205° Southwest 346 398 26,300 -2,580 Descending FlightAware
11:39PM 39.9990 -83.0130 204° Southwest 352 405 24,900 -2,220 Descending FlightAware
11:40PM 39.9610 -83.0500 217° Southwest 342 394 24,100 -1,200 Descending FlightAware
11:40PM 39.9470 -83.0780 237° Southwest 342 394 24,000 -780 Descending FlightAware
11:41PM 39.9050 -83.1780 241° Southwest 334 384 23,200 -1,380 Descending FlightAware
11:42PM 39.8690 -83.2640 241° Southwest 328 377 21,600 -1,980 Descending FlightAware
11:43PM 39.8370 -83.3390 241° Southwest 334 384 20,200 -1,620 Descending FlightAware
11:44PM 39.7960 -83.4350 241° Southwest 325 374 19,000 -1,260 Descending FlightAware
11:44PM 39.7620 -83.5140 241° Southwest 326 375 18,100 -1,020 Descending FlightAware
11:45PM 39.7340 -83.5820 242° Southwest 319 367 17,600 -1,080 Descending FlightAware
11:46PM 39.7030 -83.6540 241° Southwest 315 362 16,600 -1,380 Descending FlightAware
11:47PM 39.6580 -83.7570 240° Southwest 295 339 15,200 -1,320 Descending FlightAware
11:47PM 39.6410 -83.7970 241° Southwest 286 329 14,700 -1,380 Descending FlightAware
11:48PM 39.6060 -83.8780 241° Southwest 274 315 13,400 -1,740 Descending FlightAware
11:49PM 39.5810 -83.9270 237° Southwest 282 325 12,100 -1,260 Descending FlightAware
11:50PM 39.5280 -84.0010 227° Southwest 277 319 11,400 -420 Descending FlightAware
11:50PM 39.4960 -84.0390 223° Southwest 284 327 11,500  Climbing FlightAware
11:51PM 39.4700 -84.0470 193° South 292 336 11,400 -120 Descending FlightAware
11:52PM 39.4120 -84.0500 182° South 292 336 11,400  Level FlightAware
11:52PM 39.3570 -84.0540 183° South 292 336 11,400  Level FlightAware
11:53PM 39.3440 -84.0550 183° South 292 336 11,400 -960 Level FlightAware
11:57PM 39.0930 -83.9770 166° South 199 229 7,500 -1,140 Descending FlightAware
11:57PM 39.0833 -84.0167 166° South 205 236 6,300 -1,380 Descending Cincinnati TRACON
11:58PM 39.0672 -84.0597 244° Southwest 199 229 5,800 -780 Descending Indianapolis Center
11:59PM 39.0483 -84.1136 246° West 179 206 5,000 -420 Descending Indianapolis Center
12:00AM 39.0428 -84.1619 262° West 160 184 5,000  Level Indianapolis Center
12:01AM 39.0433 -84.2183 271° West 157 181 5,000  Level Indianapolis Center
12:02AM 39.0447 -84.2731 272° West 156 180 5,000  Level Indianapolis Center
12:03AM 39.0447 -84.3292 270° West 156 180 5,000  Level Indianapolis Center
12:04AM 39.0447 -84.3836 270° West 154 177 5,000 -420 Level Indianapolis Center
12:05AM 39.0450 -84.4383 270° West 154 177 4,200 -840 Descending Indianapolis Center
12:06AM 39.0447 -84.4889 270° West 150 173 3,400 -840 Descending Indianapolis Center
12:08AM 39.0500 -84.6000 274° West 141 162 1,700 -840 Descending Cincinnati TRACON